Indian Lake, Indiana
Current Conditions -  °F | °C
As of 7:55 PM on Thursday 27 Nov 2014 (Local Time) from KGWB Reporting Station
Light Snow Light Snow  
Wind Chill: -7°   Ceiling: 1900
Heat Index: -2°   Visibility: 10mi
Dew Point: -5°   Wind: 9mph
Humidity: 80%   Direction: 310°NW
Pressure: 30.33"   Gusts: 16mph
Location:  41.4621°N, 85.1517°W
Report Text: KGWB 280055Z AUTO 31008G14KT 10SM -SN BKN019 BKN027 OVC037 M02/M05 A3033 RMK AO2
Loading
Personal Weather Stations






























Interactive Weather Map New forecast layout! Learn more

10-Day Weather Forecast

Advertisements
Track Severe Weather on mobile